Time;durP1;ratioP1;P1;durP2;ratioP2;P2;SDS_P1;SDS_P2;PMS_P1;PMS_P2;Temp;Humidity;BMP_temperature;BMP_pressure;BME280_temperature;BME280_humidity;BME280_pressure;Samples;Min_cycle;Max_cycle;Signal;HPM_P1;HPM_P2
2023/11/25 00:01:44;;;;;;;3.03;1.40;;;22.40;62.30;;;;;;5109451;28;20443;-85
2023/11/25 00:04:11;;;;;;;1.73;1.30;;;22.40;62.40;;;;;;5106220;28;20487;-85
2023/11/25 00:06:38;;;;;;;4.30;1.10;;;22.40;62.50;;;;;;5128454;22;20508;-84
2023/11/25 00:09:05;;;;;;;2.33;1.20;;;22.30;62.50;;;;;;5124515;28;20453;-84
2023/11/25 00:11:32;;;;;;;1.50;1.07;;;22.30;62.60;;;;;;5123530;28;20418;-85
2023/11/25 00:14:01;;;;;;;3.30;1.50;;;22.40;62.50;;;;;;5125088;28;20456;-84
2023/11/25 00:16:27;;;;;;;1.20;0.97;;;22.30;62.30;;;;;;5122300;28;20497;-85
2023/11/25 00:18:54;;;;;;;1.30;1.00;;;22.30;62.40;;;;;;5123373;28;20450;-85
2023/11/25 00:21:21;;;;;;;1.33;1.17;;;22.30;62.50;;;;;;5122450;28;20450;-85
2023/11/25 00:23:48;;;;;;;1.63;1.07;;;22.40;62.60;;;;;;5124722;28;20910;-85
2023/11/25 00:26:14;;;;;;;1.50;1.20;;;22.30;62.50;;;;;;5123432;28;20447;-85
2023/11/25 00:28:41;;;;;;;1.30;1.10;;;22.30;62.50;;;;;;5107644;28;20502;-85
2023/11/25 00:31:09;;;;;;;1.50;0.90;;;22.30;62.50;;;;;;5126906;22;20482;-84
2023/11/25 00:33:36;;;;;;;1.50;1.10;;;22.20;62.40;;;;;;5118971;28;20451;-84
2023/11/25 00:36:03;;;;;;;1.80;1.00;;;22.20;62.40;;;;;;5122762;28;20490;-84
2023/11/25 00:38:30;;;;;;;1.83;1.43;;;22.20;62.50;;;;;;5122246;28;20451;-85
2023/11/25 00:43:23;;;;;;;1.30;1.00;;;22.20;62.50;;;;;;5137116;22;20488;-85
2023/11/25 00:45:50;;;;;;;2.40;0.97;;;22.20;62.70;;;;;;5126268;28;20235;-85
2023/11/25 00:48:18;;;;;;;1.97;1.20;;;22.20;62.70;;;;;;5127891;28;20443;-85
2023/11/25 00:50:45;;;;;;;1.00;0.70;;;22.20;62.60;;;;;;5124972;28;20474;-85
2023/11/25 00:53:12;;;;;;;2.33;1.23;;;22.20;62.70;;;;;;5127310;28;20471;-85
2023/11/25 00:55:38;;;;;;;1.90;1.20;;;22.20;62.90;;;;;;5122088;28;20462;-85
2023/11/25 00:58:05;;;;;;;1.60;0.80;;;22.20;62.80;;;;;;5097450;22;20460;-85
2023/11/25 01:00:32;;;;;;;1.10;0.87;;;22.20;62.90;;;;;;5085494;28;20454;-85
2023/11/25 01:03:00;;;;;;;1.67;1.17;;;22.20;62.90;;;;;;5086149;28;20965;-84
2023/11/25 01:05:29;;;;;;;1.20;1.00;;;22.10;62.80;;;;;;5081543;28;20456;-84
2023/11/25 01:07:55;;;;;;;1.77;1.10;;;22.20;63.00;;;;;;5121467;22;20482;-84
2023/11/25 01:10:22;;;;;;;2.03;1.00;;;22.20;62.90;;;;;;5121586;28;20446;-85
2023/11/25 01:12:49;;;;;;;1.50;0.97;;;22.20;62.70;;;;;;5134530;22;20485;-85
2023/11/25 01:15:16;;;;;;;1.20;0.90;;;22.20;62.70;;;;;;5123141;28;20447;-85
2023/11/25 01:17:43;;;;;;;1.30;1.13;;;22.20;62.80;;;;;;5304119;22;20485;-85
2023/11/25 01:20:10;;;;;;;1.93;0.97;;;22.20;62.70;;;;;;5137525;22;20510;-83
2023/11/25 01:22:39;;;;;;;2.27;1.33;;;22.20;62.80;;;;;;5132591;22;20538;-84
2023/11/25 01:25:07;;;;;;;2.27;1.30;;;22.20;62.80;;;;;;5136357;22;20452;-83
2023/11/25 01:27:35;;;;;;;1.93;0.80;;;22.20;62.80;;;;;;5109976;28;20436;-84
2023/11/25 01:30:04;;;;;;;2.17;1.00;;;22.20;62.70;;;;;;5107522;28;20447;-83
2023/11/25 01:32:31;;;;;;;1.90;1.00;;;22.20;62.70;;;;;;5103073;28;20451;-84
2023/11/25 01:34:57;;;;;;;1.20;0.90;;;22.20;62.60;;;;;;5105859;28;20558;-84
2023/11/25 01:37:27;;;;;;;4.53;1.10;;;22.20;62.50;;;;;;5121293;22;20824;-84
2023/11/25 01:39:55;;;;;;;1.10;0.83;;;22.20;62.70;;;;;;5122410;28;20483;-84
2023/11/25 01:42:22;;;;;;;2.40;1.00;;;22.20;62.60;;;;;;5131942;22;20435;-84
2023/11/25 01:44:49;;;;;;;1.20;1.00;;;22.20;62.50;;;;;;5124523;28;20453;-84
2023/11/25 01:47:17;;;;;;;1.40;1.00;;;22.20;62.70;;;;;;5123289;28;20434;-84
2023/11/25 01:49:58;;;;;;;1.40;1.03;;;22.20;62.60;;;;;;5131787;22;20486;-84
2023/11/25 01:52:26;;;;;;;1.10;0.90;;;22.20;62.40;;;;;;5136569;22;20498;-84
2023/11/25 01:54:55;;;;;;;2.03;1.00;;;22.20;62.40;;;;;;5127536;27;20777;-83
2023/11/25 01:57:22;;;;;;;1.20;0.90;;;22.20;62.50;;;;;;5112985;28;20495;-83
2023/11/25 01:59:50;;;;;;;1.30;0.90;;;22.20;62.40;;;;;;5105993;28;20443;-84
2023/11/25 02:02:20;;;;;;;1.50;0.90;;;22.20;62.50;;;;;;5124338;22;20473;-84
2023/11/25 02:04:47;;;;;;;1.50;1.00;;;22.20;62.40;;;;;;5125785;28;20426;-84
2023/11/25 02:07:14;;;;;;;1.70;1.10;;;22.20;62.30;;;;;;5126736;28;20461;-84
2023/11/25 02:09:41;;;;;;;1.20;0.90;;;22.30;62.50;;;;;;5125745;28;20430;-84
2023/11/25 02:12:10;;;;;;;1.40;1.00;;;22.30;62.60;;;;;;5131669;22;20478;-84
2023/11/25 02:14:38;;;;;;;1.20;0.90;;;22.30;62.60;;;;;;5125484;28;20453;-84
2023/11/25 02:17:05;;;;;;;1.73;0.97;;;22.30;62.40;;;;;;5130613;28;20466;-84
2023/11/25 02:19:32;;;;;;;1.30;0.90;;;22.20;62.30;;;;;;5128265;28;20424;-83
2023/11/25 02:21:59;;;;;;;1.50;1.00;;;22.30;62.50;;;;;;5132661;22;20477;-84
2023/11/25 02:24:29;;;;;;;1.83;1.10;;;22.40;62.60;;;;;;5125137;27;20449;-84
2023/11/25 02:27:00;;;;;;;1.10;0.80;;;22.30;62.60;;;;;;5118779;28;20471;-84
2023/11/25 02:29:26;;;;;;;2.30;1.10;;;22.30;62.40;;;;;;5106542;28;20454;-83
2023/11/25 02:31:53;;;;;;;1.73;1.10;;;22.40;62.50;;;;;;5105850;28;20444;-84
2023/11/25 02:34:21;;;;;;;1.50;1.37;;;22.30;62.40;;;;;;5105129;28;20439;-84
2023/11/25 02:36:48;;;;;;;1.10;0.80;;;22.30;62.20;;;;;;5105261;28;20486;-84
2023/11/25 02:39:17;;;;;;;1.17;0.80;;;22.20;62.20;;;;;;5105215;28;20424;-83
2023/11/25 02:41:48;;;;;;;1.70;1.10;;;22.30;62.40;;;;;;5104637;28;20514;-84
2023/11/25 02:44:15;;;;;;;1.10;0.80;;;22.20;62.20;;;;;;5106084;28;20458;-84
2023/11/25 02:46:45;;;;;;;1.20;1.00;;;22.20;62.30;;;;;;5103326;28;20444;-83
2023/11/25 02:49:11;;;;;;;1.20;0.97;;;22.30;62.30;;;;;;5104668;28;20456;-83
2023/11/25 02:51:38;;;;;;;2.07;1.27;;;22.30;62.10;;;;;;5104911;28;20440;-84
2023/11/25 02:54:06;;;;;;;1.50;0.90;;;22.30;62.30;;;;;;5107515;28;20423;-84
2023/11/25 02:56:33;;;;;;;1.10;0.87;;;22.20;62.20;;;;;;5110194;28;20471;-84
2023/11/25 02:59:01;;;;;;;1.50;1.20;;;22.30;62.20;;;;;;5106139;28;20448;-83
2023/11/25 03:01:30;;;;;;;1.20;1.03;;;22.30;62.10;;;;;;5106760;28;20444;-83
2023/11/25 03:04:01;;;;;;;1.23;0.97;;;22.30;62.10;;;;;;5102415;28;20964;-84
2023/11/25 03:06:30;;;;;;;1.83;1.07;;;22.30;62.20;;;;;;5105540;28;20428;-84
2023/11/25 03:08:57;;;;;;;1.60;1.00;;;22.30;62.20;;;;;;5105397;28;20483;-83
2023/11/25 03:11:26;;;;;;;1.33;0.97;;;22.30;62.30;;;;;;5109463;28;20534;-83
2023/11/25 03:13:53;;;;;;;1.53;1.00;;;22.30;62.30;;;;;;5107206;28;20542;-83
2023/11/25 03:16:24;;;;;;;1.10;0.90;;;22.30;62.20;;;;;;5114095;22;20534;-84
2023/11/25 03:18:51;;;;;;;1.20;0.93;;;22.30;62.00;;;;;;5127478;27;20426;-84
2023/11/25 03:21:19;;;;;;;1.83;1.20;;;22.30;62.10;;;;;;5122943;28;20429;-84
2023/11/25 03:23:47;;;;;;;2.07;1.07;;;22.20;62.00;;;;;;5123247;27;20454;-84
2023/11/25 03:26:14;;;;;;;1.73;1.00;;;22.20;62.00;;;;;;5118984;27;20450;-84
2023/11/25 03:28:41;;;;;;;1.53;1.10;;;22.20;61.90;;;;;;5100101;28;20930;-84
2023/11/25 03:31:08;;;;;;;1.13;0.90;;;22.30;62.10;;;;;;5104442;28;20430;-83
2023/11/25 03:33:36;;;;;;;1.40;1.00;;;22.30;62.10;;;;;;5103662;28;20447;-83
2023/11/25 03:36:04;;;;;;;1.80;0.80;;;22.20;61.70;;;;;;5103716;28;20479;-83
2023/11/25 03:38:30;;;;;;;1.47;1.10;;;22.30;62.20;;;;;;5103757;28;20440;-84
2023/11/25 03:40:57;;;;;;;1.47;1.00;;;22.30;62.10;;;;;;5102885;28;20450;-83
2023/11/25 03:43:25;;;;;;;1.13;0.90;;;22.30;62.10;;;;;;5103322;28;20538;-83
2023/11/25 03:45:52;;;;;;;1.10;1.00;;;22.30;62.00;;;;;;5102654;28;20452;-83
2023/11/25 03:48:19;;;;;;;1.77;1.10;;;22.20;61.90;;;;;;5100735;28;20809;-84
2023/11/25 03:50:47;;;;;;;1.73;1.03;;;22.20;61.90;;;;;;5103804;28;20442;-84
2023/11/25 03:53:14;;;;;;;2.10;1.27;;;22.30;62.00;;;;;;5104556;28;20539;-83
2023/11/25 03:55:41;;;;;;;1.70;1.13;;;22.30;62.00;;;;;;5103804;28;20430;-84
2023/11/25 03:58:08;;;;;;;1.40;1.00;;;22.30;61.90;;;;;;5107352;28;20483;-83
2023/11/25 04:00:35;;;;;;;1.30;1.00;;;22.30;62.00;;;;;;5103590;28;21007;-83
2023/11/25 04:03:02;;;;;;;2.20;1.10;;;22.20;62.00;;;;;;5101932;28;20423;-84
2023/11/25 04:05:29;;;;;;;1.40;1.00;;;22.30;62.00;;;;;;5104226;28;20492;-84
2023/11/25 04:07:57;;;;;;;1.63;1.27;;;22.20;61.70;;;;;;5102650;28;20443;-84
2023/11/25 04:10:26;;;;;;;1.53;0.90;;;22.30;61.90;;;;;;5103327;28;20459;-84
2023/11/25 04:12:55;;;;;;;1.67;1.00;;;22.30;61.90;;;;;;5103134;28;20447;-84
2023/11/25 04:15:22;;;;;;;1.53;0.90;;;22.30;61.90;;;;;;5101256;28;20451;-84
2023/11/25 04:17:50;;;;;;;1.80;1.10;;;22.20;61.80;;;;;;5103105;28;20548;-84
2023/11/25 04:20:24;;;;;;;2.00;1.07;;;22.20;61.80;;;;;;5119065;22;20477;-84
2023/11/25 04:22:51;;;;;;;1.47;0.90;;;22.20;61.80;;;;;;5127435;22;20577;-84
2023/11/25 04:25:21;;;;;;;1.60;0.93;;;22.20;62.00;;;;;;5121108;28;20507;-84
2023/11/25 04:27:49;;;;;;;1.33;0.90;;;22.20;61.90;;;;;;5117447;22;20474;-83
2023/11/25 04:30:17;;;;;;;1.53;1.00;;;22.20;62.00;;;;;;5122545;28;20961;-84
2023/11/25 04:32:46;;;;;;;1.33;1.13;;;22.20;61.90;;;;;;5129420;22;20587;-84
2023/11/25 04:35:13;;;;;;;1.50;1.03;;;22.20;61.90;;;;;;5122354;28;20473;-84
2023/11/25 04:37:44;;;;;;;1.37;1.03;;;22.20;61.80;;;;;;5110745;22;20490;-84
2023/11/25 04:40:12;;;;;;;1.33;1.07;;;22.30;61.90;;;;;;5133107;22;20498;-84
2023/11/25 04:42:41;;;;;;;1.73;1.00;;;22.20;61.80;;;;;;5127929;28;20419;-84
2023/11/25 04:45:15;;;;;;;1.20;0.90;;;22.20;61.90;;;;;;5126883;28;20429;-84
2023/11/25 04:47:43;;;;;;;1.33;1.10;;;22.20;61.80;;;;;;5127029;27;20851;-84
2023/11/25 04:50:10;;;;;;;1.10;0.80;;;22.20;61.70;;;;;;5122302;27;20454;-84
2023/11/25 04:52:37;;;;;;;1.30;0.90;;;22.20;61.70;;;;;;5124064;27;20419;-84
2023/11/25 04:55:05;;;;;;;1.60;1.20;;;22.20;61.70;;;;;;5123184;28;20415;-84
2023/11/25 04:57:32;;;;;;;1.33;1.07;;;22.30;61.90;;;;;;5120700;22;20482;-84
2023/11/25 05:00:01;;;;;;;1.33;1.13;;;22.30;61.80;;;;;;5136685;22;20482;-84
2023/11/25 05:02:28;;;;;;;1.80;1.23;;;22.30;61.70;;;;;;5134907;22;20577;-84
2023/11/25 05:04:55;;;;;;;2.30;1.17;;;22.30;61.90;;;;;;5124977;27;20446;-84
2023/11/25 05:07:22;;;;;;;1.53;0.93;;;22.30;61.80;;;;;;5119349;22;20567;-84
2023/11/25 05:09:49;;;;;;;1.70;1.20;;;22.30;61.70;;;;;;5102442;28;20448;-84
2023/11/25 05:12:19;;;;;;;1.30;0.90;;;22.30;61.60;;;;;;5125476;22;20488;-83
2023/11/25 05:14:46;;;;;;;2.63;1.50;;;22.30;61.70;;;;;;5101590;28;20519;-83
2023/11/25 05:17:14;;;;;;;2.40;1.07;;;22.40;61.70;;;;;;5106304;28;20530;-84
2023/11/25 05:19:41;;;;;;;1.10;0.90;;;22.30;61.50;;;;;;5116959;22;20522;-83
2023/11/25 05:22:08;;;;;;;1.40;1.00;;;22.30;61.50;;;;;;5124937;28;20467;-84
2023/11/25 05:24:34;;;;;;;1.77;0.97;;;22.30;61.50;;;;;;5122896;28;20443;-84
2023/11/25 05:27:01;;;;;;;2.83;1.50;;;22.40;61.60;;;;;;5105203;28;20464;-84
2023/11/25 05:29:29;;;;;;;1.90;1.40;;;22.30;61.50;;;;;;5104902;28;20444;-84
2023/11/25 05:31:56;;;;;;;1.50;1.03;;;22.30;61.40;;;;;;5102832;28;20957;-84
2023/11/25 05:34:25;;;;;;;1.80;1.30;;;22.30;61.40;;;;;;5102758;28;20447;-83
2023/11/25 05:36:51;;;;;;;1.50;0.97;;;22.40;61.50;;;;;;5101944;28;20479;-84
2023/11/25 05:39:20;;;;;;;1.47;1.00;;;22.40;61.40;;;;;;5109405;22;20431;-83
2023/11/25 05:41:48;;;;;;;1.23;0.97;;;22.40;61.40;;;;;;5120699;28;20495;-83
2023/11/25 05:44:15;;;;;;;1.47;1.03;;;22.40;61.30;;;;;;5117208;28;20447;-83
2023/11/25 05:46:42;;;;;;;1.40;1.13;;;22.40;61.40;;;;;;5121092;28;20451;-83
2023/11/25 05:49:09;;;;;;;1.97;1.37;;;22.40;61.40;;;;;;5126146;22;20451;-84
2023/11/25 05:51:41;;;;;;;1.80;1.33;;;22.40;61.40;;;;;;5121984;28;20443;-83
2023/11/25 05:54:08;;;;;;;2.30;1.20;;;22.40;61.20;;;;;;5121616;28;20450;-84
2023/11/25 05:56:35;;;;;;;1.30;0.90;;;22.40;61.40;;;;;;5109340;28;20491;-84
2023/11/25 05:59:03;;;;;;;1.40;1.03;;;22.40;61.30;;;;;;5102878;28;20423;-83
2023/11/25 06:01:29;;;;;;;2.40;1.20;;;22.40;61.40;;;;;;5102655;28;20447;-84
2023/11/25 06:03:58;;;;;;;3.03;1.43;;;22.40;61.30;;;;;;5099915;28;20476;-83
2023/11/25 06:06:25;;;;;;;1.23;1.00;;;22.40;61.40;;;;;;5099569;28;20443;-84
2023/11/25 06:08:53;;;;;;;2.17;1.10;;;22.40;61.40;;;;;;5100165;28;20446;-84
2023/11/25 06:11:20;;;;;;;1.60;1.00;;;22.40;61.40;;;;;;5100075;28;20420;-84
2023/11/25 06:13:47;;;;;;;1.63;1.10;;;22.40;61.40;;;;;;5102295;28;20547;-84
2023/11/25 06:16:14;;;;;;;2.13;1.60;;;22.40;61.30;;;;;;5099188;28;20451;-84
2023/11/25 06:18:41;;;;;;;2.83;1.50;;;22.40;61.30;;;;;;5103411;28;20465;-85
2023/11/25 06:21:08;;;;;;;1.30;1.03;;;22.40;61.20;;;;;;5099278;28;20435;-85
2023/11/25 06:23:35;;;;;;;1.20;0.90;;;22.40;61.40;;;;;;5098734;28;20455;-84
2023/11/25 06:26:13;;;;;;;2.90;1.10;;;22.40;61.30;;;;;;5099725;28;20482;-96
2023/11/25 06:28:41;;;;;;;2.23;1.20;;;22.40;61.10;;;;;;5104646;28;20983;-84
2023/11/25 06:31:08;;;;;;;1.37;1.13;;;22.40;61.00;;;;;;5103284;28;20504;-93
2023/11/25 06:33:35;;;;;;;1.30;1.00;;;22.40;60.90;;;;;;5101211;28;20955;-85
2023/11/25 06:36:02;;;;;;;1.33;1.07;;;22.50;61.60;;;;;;5101196;28;20483;-84
2023/11/25 06:38:28;;;;;;;1.63;1.10;;;22.50;61.20;;;;;;5104795;28;20465;-84
2023/11/25 06:40:55;;;;;;;2.80;1.03;;;22.50;60.90;;;;;;5106548;28;20454;-83
2023/11/25 06:43:24;;;;;;;1.23;0.90;;;22.50;61.10;;;;;;5101779;28;20491;-83
2023/11/25 06:45:51;;;;;;;2.37;1.00;;;22.50;61.10;;;;;;5098258;28;20938;-91
2023/11/25 06:48:19;;;;;;;1.80;1.00;;;22.50;60.90;;;;;;5076007;28;20834;-85
2023/11/25 06:51:00;;;;;;;1.23;1.00;;;22.50;60.50;;;;;;5076890;28;20440;-95
2023/11/25 06:53:27;;;;;;;1.40;0.90;;;22.60;61.40;;;;;;5078643;28;20444;-95
2023/11/25 06:55:54;;;;;;;1.87;1.40;;;22.50;59.60;;;;;;5076261;28;20464;-92
2023/11/25 06:58:22;;;;;;;2.10;1.63;;;22.50;60.40;;;;;;5076469;28;20494;-96
2023/11/25 07:00:49;;;;;;;1.20;0.87;;;22.50;60.90;;;;;;5076454;28;20523;-85
2023/11/25 07:03:16;;;;;;;1.93;1.00;;;22.50;60.80;;;;;;5076369;28;20433;-95
2023/11/25 07:05:43;;;;;;;1.50;1.13;;;22.50;60.90;;;;;;5076864;28;20444;-85
2023/11/25 07:08:10;;;;;;;2.57;1.30;;;22.60;61.10;;;;;;5077317;28;20446;-96
2023/11/25 07:10:38;;;;;;;1.70;1.33;;;22.50;61.40;;;;;;5076584;28;20452;-96
2023/11/25 07:13:05;;;;;;;4.17;1.10;;;22.60;61.30;;;;;;5076707;28;20441;-85
2023/11/25 07:15:33;;;;;;;2.40;1.10;;;22.60;61.40;;;;;;5076540;28;20519;-96
2023/11/25 07:18:00;;;;;;;2.80;1.10;;;22.60;61.60;;;;;;5076060;28;20480;-96
2023/11/25 07:20:28;;;;;;;1.87;1.10;;;22.60;61.50;;;;;;5076376;28;20800;-95
2023/11/25 07:22:55;;;;;;;1.73;1.10;;;22.60;61.40;;;;;;5076245;28;20437;-91
2023/11/25 07:25:22;;;;;;;1.87;1.20;;;22.60;61.40;;;;;;5075912;28;20474;-93
2023/11/25 07:27:50;;;;;;;2.20;1.17;;;22.60;61.60;;;;;;5076398;28;20436;-96
2023/11/25 07:30:17;;;;;;;2.07;1.30;;;22.60;59.10;;;;;;5076101;28;20463;-96
2023/11/25 07:32:48;;;;;;;8.90;1.27;;;22.60;60.40;;;;;;5076628;28;20436;-96
2023/11/25 07:35:15;;;;;;;2.13;1.13;;;22.60;61.40;;;;;;5075925;28;20424;-91
2023/11/25 07:37:42;;;;;;;2.30;1.20;;;22.60;61.20;;;;;;5075333;28;21008;-96
2023/11/25 07:40:13;;;;;;;1.97;1.00;;;22.60;61.30;;;;;;5079339;28;20440;-94
2023/11/25 07:42:41;;;;;;;2.73;1.10;;;22.60;60.00;;;;;;5087265;28;20435;-94
2023/11/25 07:45:11;;;;;;;2.17;1.20;;;22.60;61.30;;;;;;5103889;28;20451;-86
2023/11/25 07:47:41;;;;;;;1.80;1.30;;;22.60;61.20;;;;;;5101404;23;20511;-91
2023/11/25 07:50:11;;;;;;;1.43;1.13;;;22.60;61.50;;;;;;5079827;28;20443;-96
2023/11/25 07:52:38;;;;;;;1.83;1.00;;;22.60;61.10;;;;;;5078676;28;20449;-96
2023/11/25 07:55:06;;;;;;;1.50;1.03;;;22.60;61.00;;;;;;5076687;28;20467;-96
2023/11/25 07:57:33;;;;;;;1.37;1.10;;;22.60;61.40;;;;;;5078225;28;20550;-95
2023/11/25 08:00:00;;;;;;;2.07;1.23;;;22.60;61.70;;;;;;5074946;28;20451;-95
2023/11/25 08:02:27;;;;;;;2.67;1.00;;;22.60;61.20;;;;;;5074758;28;20527;-95
2023/11/25 08:04:54;;;;;;;2.37;1.43;;;22.60;61.00;;;;;;5075893;28;20445;-96
2023/11/25 08:07:23;;;;;;;1.20;0.90;;;22.60;61.20;;;;;;5074957;28;20441;-96
2023/11/25 08:09:51;;;;;;;2.07;1.30;;;22.60;61.30;;;;;;5075021;28;20936;-95
2023/11/25 08:12:18;;;;;;;1.60;1.20;;;22.70;61.50;;;;;;5075358;28;20510;-96
2023/11/25 08:14:47;;;;;;;4.47;1.57;;;22.60;61.40;;;;;;5075663;28;20459;-95
2023/11/25 08:17:14;;;;;;;2.70;1.43;;;22.60;61.40;;;;;;5074639;28;20445;-95
2023/11/25 08:19:41;;;;;;;2.07;1.10;;;22.60;61.40;;;;;;5075765;28;20445;-95
2023/11/25 08:22:07;;;;;;;1.90;1.00;;;22.60;61.40;;;;;;5075352;28;21008;-94
2023/11/25 08:24:36;;;;;;;2.30;1.07;;;22.60;61.10;;;;;;5074660;28;20931;-84
2023/11/25 08:27:03;;;;;;;1.67;1.07;;;22.60;61.20;;;;;;5075083;28;20460;-85
2023/11/25 08:29:29;;;;;;;3.17;1.27;;;22.60;61.30;;;;;;5075248;28;20448;-95
2023/11/25 08:31:56;;;;;;;3.43;1.23;;;22.60;61.40;;;;;;5075003;28;20814;-91
2023/11/25 08:34:23;;;;;;;2.23;1.27;;;22.60;61.30;;;;;;5075229;28;20436;-96
2023/11/25 08:36:53;;;;;;;2.47;1.37;;;22.70;61.40;;;;;;5075192;28;20442;-95
2023/11/25 08:39:21;;;;;;;1.50;1.00;;;22.70;61.40;;;;;;5074646;28;21013;-96
2023/11/25 08:41:52;;;;;;;3.87;1.07;;;22.60;61.40;;;;;;5074861;28;20473;-85
2023/11/25 08:44:20;;;;;;;1.60;1.00;;;22.70;61.70;;;;;;5075025;28;20456;-86
2023/11/25 08:46:46;;;;;;;2.50;1.00;;;22.60;61.50;;;;;;5075091;28;20555;-95
2023/11/25 08:49:14;;;;;;;3.80;1.30;;;22.70;61.40;;;;;;5074482;28;20433;-95
2023/11/25 08:51:45;;;;;;;1.70;1.10;;;22.70;60.80;;;;;;5074703;28;20439;-96
2023/11/25 08:54:13;;;;;;;1.83;1.10;;;22.90;61.60;;;;;;5077435;28;20464;-96
2023/11/25 08:56:41;;;;;;;1.23;0.97;;;22.70;60.40;;;;;;5075304;28;20445;-96
2023/11/25 08:59:09;;;;;;;2.30;1.20;;;22.80;61.30;;;;;;5074265;28;20495;-94
2023/11/25 09:01:39;;;;;;;3.97;1.10;;;22.80;61.40;;;;;;5074274;28;20428;-96
2023/11/25 09:04:07;;;;;;;2.23;1.23;;;22.80;61.30;;;;;;5075315;28;20834;-84
2023/11/25 09:06:36;;;;;;;4.07;1.10;;;22.80;61.40;;;;;;5074504;28;20436;-95
2023/11/25 09:09:04;;;;;;;1.73;1.10;;;22.90;61.40;;;;;;5074493;28;20440;-89
2023/11/25 09:11:31;;;;;;;1.50;1.20;;;22.90;61.00;;;;;;5074622;28;20435;-84
2023/11/25 09:13:58;;;;;;;2.60;1.13;;;22.90;60.80;;;;;;5074249;28;20433;-96
2023/11/25 09:16:27;;;;;;;2.37;1.00;;;22.90;60.60;;;;;;5074394;28;20444;-96
2023/11/25 09:18:54;;;;;;;2.23;1.10;;;23.00;60.80;;;;;;5077124;28;20481;-96
2023/11/25 09:21:21;;;;;;;2.53;0.90;;;23.00;60.90;;;;;;5076278;28;20432;-96
2023/11/25 09:23:48;;;;;;;2.23;1.10;;;23.00;60.50;;;;;;5081329;28;20432;-94
2023/11/25 09:26:15;;;;;;;1.73;1.20;;;23.00;60.00;;;;;;5078018;28;20467;-94
2023/11/25 09:28:41;;;;;;;1.27;1.00;;;23.00;61.30;;;;;;5075474;28;20439;-90
2023/11/25 09:31:09;;;;;;;1.83;1.00;;;23.00;60.60;;;;;;5075012;28;20447;-91
2023/11/25 09:33:37;;;;;;;2.23;1.07;;;23.10;59.90;;;;;;5077457;28;20445;-96
2023/11/25 09:36:04;;;;;;;2.60;1.13;;;23.00;59.10;;;;;;5075094;28;20442;-95
2023/11/25 09:38:32;;;;;;;2.43;1.17;;;22.90;59.70;;;;;;5073797;28;20487;-96
2023/11/25 09:40:59;;;;;;;7.13;1.40;;;22.90;59.90;;;;;;5073394;28;20437;-89
2023/11/25 09:43:26;;;;;;;6.40;1.30;;;22.90;59.70;;;;;;5074187;28;20967;-94
2023/11/25 09:45:54;;;;;;;1.70;1.13;;;22.90;58.70;;;;;;5074542;28;20471;-94
2023/11/25 09:48:21;;;;;;;1.70;1.23;;;22.80;58.70;;;;;;5056335;28;20508;-94
2023/11/25 09:50:51;;;;;;;1.77;1.30;;;22.70;59.00;;;;;;5053449;28;20453;-95
2023/11/25 09:53:23;;;;;;;2.43;1.23;;;22.80;59.70;;;;;;5053524;28;20437;-90
2023/11/25 09:55:59;;;;;;;3.03;1.27;;;22.80;59.70;;;;;;5053520;28;20472;-88
2023/11/25 09:58:28;;;;;;;3.53;1.67;;;22.70;59.40;;;;;;5053131;28;20473;-85
2023/11/25 10:00:56;;;;;;;2.33;1.27;;;22.80;59.70;;;;;;5055024;28;20439;-95
2023/11/25 10:03:24;;;;;;;4.17;1.03;;;22.80;59.60;;;;;;5056411;28;20436;-85
2023/11/25 10:05:52;;;;;;;2.93;1.53;;;22.80;59.80;;;;;;5057087;28;20469;-96
2023/11/25 10:08:19;;;;;;;5.00;1.40;;;22.90;60.00;;;;;;5057079;28;20438;-84
2023/11/25 10:10:59;;;;;;;2.23;1.30;;;22.90;59.80;;;;;;5057029;28;20433;-84
2023/11/25 10:13:26;;;;;;;6.53;1.37;;;22.90;60.20;;;;;;5056806;28;20437;-90
2023/11/25 10:15:53;;;;;;;5.10;1.00;;;22.90;60.10;;;;;;5057089;28;20456;-85
2023/11/25 10:18:20;;;;;;;5.03;1.47;;;22.90;60.20;;;;;;5056502;28;20976;-84
2023/11/25 10:20:47;;;;;;;1.40;1.00;;;22.90;60.30;;;;;;5056672;28;20819;-84
2023/11/25 10:23:22;;;;;;;2.23;1.13;;;22.90;60.20;;;;;;5056484;28;20479;-96
2023/11/25 10:25:50;;;;;;;2.00;1.33;;;22.90;60.30;;;;;;5056604;28;20544;-95
2023/11/25 10:28:18;;;;;;;1.53;1.00;;;22.90;60.20;;;;;;5056343;28;20441;-96
2023/11/25 10:30:54;;;;;;;2.60;1.00;;;22.90;60.10;;;;;;5056557;28;20469;-85
2023/11/25 10:33:22;;;;;;;2.30;1.20;;;23.00;60.40;;;;;;5056137;28;20429;-84
2023/11/25 10:35:49;;;;;;;2.03;1.43;;;22.90;60.30;;;;;;5055932;28;20429;-84
2023/11/25 10:38:21;;;;;;;2.57;1.40;;;22.90;60.30;;;;;;5055880;28;20479;-84
2023/11/25 10:40:49;;;;;;;1.30;0.90;;;23.00;60.40;;;;;;5056015;28;20802;-86
2023/11/25 10:43:16;;;;;;;4.67;1.30;;;22.90;60.30;;;;;;5055585;28;20528;-84
2023/11/25 10:45:43;;;;;;;7.03;1.37;;;22.90;60.40;;;;;;5056123;28;20429;-95
2023/11/25 10:48:12;;;;;;;5.10;0.90;;;22.90;60.30;;;;;;5071907;28;20974;-84
2023/11/25 10:50:41;;;;;;;2.20;1.07;;;22.90;60.40;;;;;;5075843;28;20436;-85
2023/11/25 10:53:12;;;;;;;5.93;0.93;;;22.90;60.40;;;;;;5076091;28;20531;-95
2023/11/25 10:55:43;;;;;;;1.20;0.97;;;23.00;60.50;;;;;;5076243;28;20986;-95
2023/11/25 10:58:11;;;;;;;1.20;1.00;;;23.00;60.50;;;;;;5075850;28;20433;-92
2023/11/25 11:00:38;;;;;;;1.67;1.07;;;23.00;60.40;;;;;;5076190;28;20440;-85
2023/11/25 11:03:09;;;;;;;1.63;1.10;;;23.00;60.20;;;;;;5076173;28;20763;-95
2023/11/25 11:05:45;;;;;;;1.87;1.10;;;23.00;60.30;;;;;;5075903;28;20436;-95
2023/11/25 11:08:18;;;;;;;3.13;1.20;;;23.10;60.40;;;;;;5076059;28;20432;-95
2023/11/25 11:10:54;;;;;;;1.87;1.10;;;23.10;60.40;;;;;;5075910;28;20436;-94
2023/11/25 11:13:26;;;;;;;1.73;1.03;;;23.10;60.40;;;;;;5075014;28;20447;-96
2023/11/25 11:15:57;;;;;;;3.30;1.50;;;23.10;60.40;;;;;;5075884;28;20466;-85
2023/11/25 11:18:30;;;;;;;2.17;1.30;;;23.10;60.40;;;;;;5075725;28;20528;-95
2023/11/25 11:20:59;;;;;;;1.77;1.27;;;23.10;60.30;;;;;;5075659;28;20468;-90
2023/11/25 11:23:27;;;;;;;1.80;1.10;;;23.10;60.40;;;;;;5075566;28;20436;-95
2023/11/25 11:26:03;;;;;;;1.50;0.87;;;23.10;60.40;;;;;;5075394;28;20530;-96
2023/11/25 11:28:39;;;;;;;1.67;1.27;;;23.10;60.40;;;;;;5075634;28;20801;-95
2023/11/25 11:31:50;;;;;;;1.40;1.10;;;23.10;60.50;;;;;;5075215;28;20807;-95
2023/11/25 11:34:18;;;;;;;1.33;0.97;;;23.00;60.50;;;;;;5075663;28;20502;-88
2023/11/25 11:36:44;;;;;;;1.77;1.00;;;23.00;60.50;;;;;;5075228;28;20441;-84
2023/11/25 11:39:32;;;;;;;1.40;0.90;;;23.00;60.50;;;;;;5075446;28;20496;-85
2023/11/25 11:42:34;;;;;;;2.90;1.10;;;23.00;60.50;;;;;;5075108;28;20444;-95
2023/11/25 11:45:11;;;;;;;1.37;0.97;;;23.10;60.70;;;;;;5075200;28;20431;-94
2023/11/25 11:47:45;;;;;;;1.80;1.03;;;23.00;60.50;;;;;;5074904;28;20472;-84
2023/11/25 11:50:17;;;;;;;3.87;0.83;;;23.00;60.60;;;;;;5074475;28;20922;-95
2023/11/25 11:52:48;;;;;;;2.60;1.20;;;23.10;60.50;;;;;;5057481;28;20440;-89
2023/11/25 11:55:35;;;;;;;1.90;1.20;;;23.10;60.50;;;;;;5074673;28;20886;-85
2023/11/25 11:58:05;;;;;;;1.57;1.00;;;23.10;60.50;;;;;;5075159;28;20439;-84
2023/11/25 12:00:35;;;;;;;1.80;0.80;;;23.10;60.60;;;;;;5074810;28;20484;-95
2023/11/25 12:03:02;;;;;;;1.90;0.90;;;23.10;60.60;;;;;;5074804;28;20539;-96
2023/11/25 12:05:29;;;;;;;1.30;1.00;;;23.10;60.50;;;;;;5074623;28;20440;-95
2023/11/25 12:07:56;;;;;;;1.20;1.00;;;23.10;60.50;;;;;;5074881;28;20441;-91
2023/11/25 12:10:23;;;;;;;1.90;1.10;;;23.10;60.60;;;;;;5074728;28;20432;-84
2023/11/25 12:12:51;;;;;;;2.60;1.20;;;23.10;60.50;;;;;;5074353;28;20796;-95
2023/11/25 12:15:19;;;;;;;1.60;1.10;;;23.10;60.50;;;;;;5074275;28;20445;-96
2023/11/25 12:17:46;;;;;;;1.40;1.00;;;23.10;60.60;;;;;;5074351;28;20443;-85
2023/11/25 12:20:15;;;;;;;1.30;0.97;;;23.10;60.60;;;;;;5074443;28;20484;-89
2023/11/25 12:22:43;;;;;;;1.63;1.27;;;23.10;60.60;;;;;;5074086;28;20446;-84
2023/11/25 12:25:13;;;;;;;2.20;0.90;;;23.10;60.60;;;;;;5074219;28;20457;-84
2023/11/25 12:27:47;;;;;;;1.63;0.90;;;23.10;60.60;;;;;;5074333;28;20928;-84
2023/11/25 12:30:14;;;;;;;1.63;0.90;;;23.10;60.60;;;;;;5074142;28;20440;-95
2023/11/25 12:32:43;;;;;;;2.80;1.20;;;23.10;60.60;;;;;;5074277;28;20436;-92
2023/11/25 12:35:13;;;;;;;1.70;1.10;;;23.10;60.60;;;;;;5074221;28;20440;-85
2023/11/25 12:37:42;;;;;;;1.50;0.87;;;23.10;60.60;;;;;;5074046;28;20428;-84
2023/11/25 12:40:18;;;;;;;1.17;0.87;;;23.10;60.60;;;;;;5074238;28;20502;-94
2023/11/25 12:42:46;;;;;;;2.03;0.80;;;23.10;60.60;;;;;;5073990;28;20475;-84
2023/11/25 12:45:31;;;;;;;1.20;0.87;;;23.10;60.50;;;;;;5073695;28;20441;-95
2023/11/25 12:48:00;;;;;;;1.63;0.93;;;23.20;60.60;;;;;;5073669;28;20480;-94
2023/11/25 12:50:29;;;;;;;1.13;0.60;;;23.10;60.60;;;;;;5074175;28;20459;-91
2023/11/25 12:53:07;;;;;;;1.73;1.20;;;23.10;61.40;;;;;;5073890;28;20439;-96
2023/11/25 12:55:42;;;;;;;1.30;0.80;;;23.10;60.50;;;;;;5073880;28;20448;-95
2023/11/25 12:58:11;;;;;;;1.50;0.90;;;23.10;60.40;;;;;;5073861;28;20440;-84